| time (UTC) | temp C | wind direction | speed KPH | gust KPH | rain 1hr cm | rain 24hr cm | rain mn cm | humidity % | barometer mb |
| 20260507224531 | 26 | 311 | 24.1 | 37.0 | 0.00 | 0.00 | 0.00 | 25 | 1016.5 |
| 20260507223048 | 25 | 317 | 20.9 | 33.8 | 0.00 | 0.00 | 0.00 | 25 | 1016.6 |
| 20260507221532 | 25 | 314 | 27.4 | 40.2 | 0.00 | 0.00 | 0.00 | 26 | 1016.6 |
| 20260507220106 | 24 | 314 | 27.4 | 40.2 | 0.00 | 0.00 | 0.00 | 27 | 1016.9 |
| 20260507214607 | 23 | 317 | 25.7 | 41.8 | 0.00 | 0.00 | 0.00 | 28 | 1017.0 |
| 20260507213030 | 23 | 319 | 29.0 | 45.1 | 0.00 | 0.00 | 0.00 | 30 | 1017.0 |
| 20260507211540 | 23 | 319 | 29.0 | 40.2 | 0.00 | 0.00 | 0.00 | 32 | 1017.2 |
| 20260507201607 | 21 | 317 | 25.7 | 38.6 | 0.00 | 0.00 | 0.00 | 35 | 1017.8 |
| 20260507200031 | 21 | 318 | 25.7 | 38.6 | 0.00 | 0.00 | 0.00 | 36 | 1018.0 |
| 20260507194531 | 20 | 318 | 25.7 | 37.0 | 0.00 | 0.00 | 0.00 | 37 | 1018.0 |
| 20260507191533 | 19 | 316 | 29.0 | 37.0 | 0.00 | 0.00 | 0.00 | 41 | 1018.5 |
| 20260507190029 | 18 | 317 | 29.0 | 37.0 | 0.00 | 0.00 | 0.00 | 43 | 1018.7 |
| 20260507184529 | 18 | 324 | 27.4 | 37.0 | 0.00 | 0.00 | 0.00 | 44 | 1018.9 |
| 20260507183041 | 18 | 326 | 24.1 | 35.4 | 0.00 | 0.00 | 0.00 | 45 | 1019.1 |
| 20260507181608 | 18 | 330 | 20.9 | 30.6 | 0.00 | 0.00 | 0.00 | 47 | 1019.4 |
| 20260507180107 | 17 | 326 | 20.9 | 30.6 | 0.00 | 0.00 | 0.00 | 48 | 1019.4 |
| 20260507174530 | 17 | 325 | 19.3 | 32.2 | 0.00 | 0.00 | 0.00 | 50 | 1019.5 |
| 20260507173042 | 17 | 333 | 17.7 | 27.4 | 0.00 | 0.00 | 0.00 | 50 | 1019.8 |
| 20260507173033 | 17 | 335 | 14.5 | 24.1 | 0.00 | 0.00 | 0.00 | 51 | 1020.0 |
| 20260507170112 | 17 | 333 | 16.1 | 27.4 | 0.00 | 0.00 | 0.00 | 51 | 1020.0 |
| 20260507164528 | 17 | 325 | 19.3 | 29.0 | 0.00 | 0.00 | 0.00 | 52 | 1020.0 |
| 20260507163031 | 17 | 318 | 17.7 | 24.1 | 0.00 | 0.00 | 0.00 | 53 | 1020.1 |
| 20260507161542 | 17 | 317 | 16.1 | 25.7 | 0.00 | 0.00 | 0.00 | 55 | 1020.2 |
| 20260507160036 | 16 | 310 | 12.9 | 20.9 | 0.00 | 0.00 | 0.00 | 57 | 1020.4 |
| 20260507154531 | 16 | 310 | 12.9 | 24.1 | 0.00 | 0.00 | 0.00 | 59 | 1020.6 |
| 20260507153032 | 15 | 42 | 8.0 | 30.6 | 0.00 | 0.00 | 0.00 | 63 | 1020.7 |
| 20260507150038 | 14 | 265 | 3.2 | 16.1 | 0.00 | 0.00 | 0.00 | 67 | 1020.8 |
| 20260507144532 | 12 | 301 | 6.4 | 16.1 | 0.00 | 0.00 | 0.00 | 71 | 1020.7 |
| 20260507143031 | 11 | 308 | 14.5 | 29.0 | 0.00 | 0.00 | 0.00 | 74 | 1020.5 |
| 20260507140032 | 11 | 313 | 14.5 | 25.7 | 0.00 | 0.00 | 0.00 | 77 | 1020.3 |
| 20260507134533 | 11 | 314 | 20.9 | 32.2 | 0.00 | 0.00 | 0.00 | 77 | 1020.0 |
| 20260507133030 | 11 | 313 | 25.7 | 35.4 | 0.00 | 0.00 | 0.00 | 77 | 1019.9 |
| 20260507131530 | 11 | 314 | 25.7 | 33.8 | 0.00 | 0.00 | 0.00 | 78 | 1019.9 |
| 20260507130031 | 11 | 314 | 24.1 | 30.6 | 0.00 | 0.00 | 0.00 | 78 | 1020.0 |
| 20260507124530 | 11 | 316 | 22.5 | 35.4 | 0.00 | 0.00 | 0.00 | 78 | 1020.1 |
| 20260507123029 | 11 | 316 | 22.5 | 32.2 | 0.00 | 0.00 | 0.00 | 77 | 1020.0 |
| 20260507121531 | 11 | 316 | 22.5 | 30.6 | 0.00 | 0.00 | 0.00 | 76 | 1019.9 |
| 20260507120031 | 11 | 316 | 20.9 | 29.0 | 0.00 | 0.00 | 0.00 | 75 | 1019.8 |
| 20260507114606 | 11 | 313 | 22.5 | 30.6 | 0.00 | 0.00 | 0.00 | 75 | 1019.6 |
| 20260507113030 | 12 | 311 | 20.9 | 38.6 | 0.00 | 0.00 | 0.00 | 74 | 1019.5 |
| 20260507111535 | 12 | 311 | 22.5 | 33.8 | 0.00 | 0.00 | 0.00 | 74 | 1019.4 |
| 20260507110029 | 12 | 303 | 22.5 | 33.8 | 0.00 | 0.00 | 0.00 | 75 | 1019.2 |
| 20260507104607 | 12 | 312 | 25.7 | 35.4 | 0.00 | 0.00 | 0.00 | 75 | 1019.0 |
| 20260507103032 | 12 | 312 | 24.1 | 30.6 | 0.00 | 0.00 | 0.00 | 75 | 1019.1 |
| 20260507100050 | 12 | 315 | 20.9 | 29.0 | 0.00 | 0.00 | 0.00 | 72 | 1019.3 |
| 20260507094530 | 13 | 314 | 20.9 | 29.0 | 0.00 | 0.00 | 0.00 | 72 | 1019.4 |
| 20260507093030 | 13 | 314 | 19.3 | 27.4 | 0.00 | 0.00 | 0.00 | 72 | 1019.5 |
| 20260507091530 | 13 | 323 | 19.3 | 29.0 | 0.00 | 0.00 | 0.00 | 73 | 1019.5 |
| 20260507090031 | 13 | 322 | 12.9 | 27.4 | 0.00 | 0.00 | 0.00 | 73 | 1019.5 |
| 20260507084530 | 13 | 336 | 6.4 | 12.9 | 0.00 | 0.00 | 0.00 | 73 | 1019.4 |
| 20260507083028 | 13 | 359 | 8.0 | 12.9 | 0.00 | 0.00 | 0.00 | 72 | 1019.4 |
| 20260507081531 | 13 | 353 | 8.0 | 14.5 | 0.00 | 0.00 | 0.00 | 71 | 1019.4 |
| 20260507080030 | 14 | 336 | 8.0 | 12.9 | 0.00 | 0.00 | 0.00 | 71 | 1019.5 |
| 20260507074531 | 14 | 315 | 11.3 | 22.5 | 0.00 | 0.00 | 0.00 | 72 | 1019.4 |
| 20260507073031 | 14 | 315 | 16.1 | 25.7 | 0.00 | 0.00 | 0.00 | 72 | 1019.3 |
| 20260507071531 | 14 | 315 | 17.7 | 32.2 | 0.00 | 0.00 | 0.00 | 72 | 1019.3 |
| 20260507070105 | 14 | 311 | 17.7 | 27.4 | 0.00 | 0.00 | 0.00 | 72 | 1019.3 |
| 20260507063032 | 15 | 316 | 11.3 | 19.3 | 0.00 | 0.00 | 0.00 | 70 | 1019.5 |
| 20260507061529 | 15 | 314 | 16.1 | 27.4 | 0.00 | 0.00 | 0.00 | 69 | 1019.5 |
| 20260507060033 | 15 | 313 | 17.7 | 32.2 | 0.00 | 0.00 | 0.00 | 68 | 1019.6 |
| 20260507054536 | 15 | 310 | 17.7 | 29.0 | 0.00 | 0.00 | 0.00 | 67 | 1019.7 |
| 20260507053108 | 15 | 311 | 16.1 | 27.4 | 0.00 | 0.00 | 0.00 | 66 | 1019.8 |
| 20260507051530 | 16 | 304 | 12.9 | 19.3 | 0.00 | 0.00 | 0.00 | 63 | 1019.9 |
| 20260507050034 | 16 | 297 | 12.9 | 27.4 | 0.00 | 0.00 | 0.00 | 61 | 1019.8 |
| 20260507044528 | 16 | 306 | 12.9 | 22.5 | 0.00 | 0.00 | 0.00 | 58 | 1019.8 |
| 20260507043031 | 17 | 309 | 11.3 | 22.5 | 0.00 | 0.00 | 0.00 | 54 | 1019.8 |
| 20260507041531 | 17 | 300 | 11.3 | 20.9 | 0.00 | 0.00 | 0.00 | 52 | 1019.6 |
| 20260507034607 | 18 | 299 | 9.7 | 19.3 | 0.00 | 0.00 | 0.00 | 50 | 1019.4 |
| 20260507031529 | 18 | 286 | 3.2 | 17.7 | 0.00 | 0.00 | 0.00 | 50 | 1019.2 |
| 20260507023033 | 19 | 311 | 11.3 | 30.6 | 0.00 | 0.00 | 0.00 | 48 | 1018.9 |
| 20260507021606 | 19 | 315 | 17.7 | 32.2 | 0.00 | 0.00 | 0.00 | 48 | 1018.8 |
| 20260507020031 | 20 | 312 | 17.7 | 32.2 | 0.00 | 0.00 | 0.00 | 47 | 1018.6 |
| 20260507014530 | 20 | 312 | 20.9 | 38.6 | 0.00 | 0.00 | 0.00 | 46 | 1018.5 |
| 20260507013031 | 20 | 314 | 20.9 | 37.0 | 0.00 | 0.00 | 0.00 | 46 | 1018.4 |
| 20260507011530 | 20 | 320 | 17.7 | 32.2 | 0.00 | 0.00 | 0.00 | 47 | 1018.5 |
| 20260507010030 | 20 | 321 | 19.3 | 38.6 | 0.00 | 0.00 | 0.00 | 45 | 1018.4 |
| 20260507004531 | 21 | 314 | 20.9 | 33.8 | 0.00 | 0.00 | 0.00 | 44 | 1018.2 |
| 20260507000049 | 21 | 312 | 22.5 | 35.4 | 0.00 | 0.00 | 0.00 | 42 | 1017.9 |
| 20260506234530 | 22 | 313 | 27.4 | 45.1 | 0.00 | 0.00 | 0.00 | 40 | 1017.7 |
| 20260506233103 | 23 | 315 | 30.6 | 45.1 | 0.00 | 0.00 | 0.00 | 39 | 1017.4 |
| 20260506231536 | 23 | 311 | 35.4 | 54.7 | 0.00 | 0.00 | 0.00 | 39 | 1017.3 |